sensor_id;sensor_type;location;lat;lon;timestamp;P1;durP1;ratioP1;P2;durP2;ratioP2
57535;SDS011;43361;49.790;8.960;2022-09-12T00:07:12;2.42;;;2.00;;
57535;SDS011;43361;49.790;8.960;2022-09-12T00:17:14;2.65;;;1.90;;
57535;SDS011;43361;49.790;8.960;2022-09-12T00:27:14;3.03;;;2.13;;
57535;SDS011;43361;49.790;8.960;2022-09-12T00:37:16;2.33;;;1.90;;
57535;SDS011;43361;49.790;8.960;2022-09-12T00:47:18;2.88;;;1.90;;
57535;SDS011;43361;49.790;8.960;2022-09-12T00:57:21;2.05;;;1.60;;
57535;SDS011;43361;49.790;8.960;2022-09-12T01:07:22;2.28;;;1.90;;
57535;SDS011;43361;49.790;8.960;2022-09-12T01:17:24;2.00;;;1.70;;
57535;SDS011;43361;49.790;8.960;2022-09-12T01:27:39;3.35;;;1.95;;
57535;SDS011;43361;49.790;8.960;2022-09-12T01:37:45;2.47;;;1.85;;
57535;SDS011;43361;49.790;8.960;2022-09-12T01:47:50;2.53;;;2.15;;
57535;SDS011;43361;49.790;8.960;2022-09-12T01:57:55;3.70;;;1.92;;
57535;SDS011;43361;49.790;8.960;2022-09-12T02:07:58;2.03;;;1.60;;
57535;SDS011;43361;49.790;8.960;2022-09-12T02:18:02;2.35;;;2.05;;
57535;SDS011;43361;49.790;8.960;2022-09-12T02:28:05;2.15;;;1.85;;
57535;SDS011;43361;49.790;8.960;2022-09-12T02:38:10;2.10;;;1.70;;
57535;SDS011;43361;49.790;8.960;2022-09-12T02:48:13;2.15;;;1.52;;
57535;SDS011;43361;49.790;8.960;2022-09-12T02:58:17;3.45;;;2.17;;
57535;SDS011;43361;49.790;8.960;2022-09-12T03:18:41;1.95;;;1.75;;
57535;SDS011;43361;49.790;8.960;2022-09-12T03:28:43;2.40;;;1.60;;
57535;SDS011;43361;49.790;8.960;2022-09-12T03:38:45;1.77;;;1.60;;
57535;SDS011;43361;49.790;8.960;2022-09-12T03:48:46;1.95;;;1.70;;
57535;SDS011;43361;49.790;8.960;2022-09-12T03:58:48;2.22;;;1.58;;
57535;SDS011;43361;49.790;8.960;2022-09-12T04:08:48;1.90;;;1.67;;
57535;SDS011;43361;49.790;8.960;2022-09-12T04:18:51;1.90;;;1.52;;
57535;SDS011;43361;49.790;8.960;2022-09-12T04:28:52;1.95;;;1.58;;
57535;SDS011;43361;49.790;8.960;2022-09-12T04:38:55;1.58;;;1.45;;
57535;SDS011;43361;49.790;8.960;2022-09-12T04:48:55;1.75;;;1.48;;
57535;SDS011;43361;49.790;8.960;2022-09-12T04:58:58;1.80;;;1.40;;
57535;SDS011;43361;49.790;8.960;2022-09-12T05:08:59;1.50;;;1.40;;
57535;SDS011;43361;49.790;8.960;2022-09-12T05:19:02;1.50;;;1.30;;
57535;SDS011;43361;49.790;8.960;2022-09-12T05:29:02;5.03;;;1.60;;
57535;SDS011;43361;49.790;8.960;2022-09-12T05:39:04;1.50;;;1.33;;
57535;SDS011;43361;49.790;8.960;2022-09-12T05:49:06;2.42;;;1.20;;
57535;SDS011;43361;49.790;8.960;2022-09-12T05:59:09;2.97;;;1.30;;
57535;SDS011;43361;49.790;8.960;2022-09-12T06:09:11;1.75;;;1.17;;
57535;SDS011;43361;49.790;8.960;2022-09-12T06:19:14;4.93;;;2.00;;
57535;SDS011;43361;49.790;8.960;2022-09-12T06:29:15;3.28;;;2.20;;
57535;SDS011;43361;49.790;8.960;2022-09-12T06:39:17;11.05;;;2.70;;
57535;SDS011;43361;49.790;8.960;2022-09-12T06:49:18;4.78;;;2.03;;
57535;SDS011;43361;49.790;8.960;2022-09-12T06:59:20;7.90;;;2.55;;
57535;SDS011;43361;49.790;8.960;2022-09-12T07:09:20;12.50;;;2.60;;
57535;SDS011;43361;49.790;8.960;2022-09-12T07:19:22;10.30;;;2.85;;
57535;SDS011;43361;49.790;8.960;2022-09-12T07:29:23;14.00;;;3.13;;
57535;SDS011;43361;49.790;8.960;2022-09-12T07:39:25;15.98;;;2.35;;
57535;SDS011;43361;49.790;8.960;2022-09-12T07:49:26;8.82;;;2.13;;
57535;SDS011;43361;49.790;8.960;2022-09-12T07:59:27;15.27;;;2.17;;
57535;SDS011;43361;49.790;8.960;2022-09-12T08:09:28;7.30;;;2.63;;
57535;SDS011;43361;49.790;8.960;2022-09-12T08:19:29;8.50;;;2.03;;
57535;SDS011;43361;49.790;8.960;2022-09-12T08:29:30;5.25;;;2.10;;
57535;SDS011;43361;49.790;8.960;2022-09-12T08:39:32;4.57;;;1.98;;
57535;SDS011;43361;49.790;8.960;2022-09-12T08:49:33;16.92;;;2.53;;
57535;SDS011;43361;49.790;8.960;2022-09-12T08:59:36;14.93;;;3.05;;
57535;SDS011;43361;49.790;8.960;2022-09-12T09:09:40;6.60;;;1.95;;
57535;SDS011;43361;49.790;8.960;2022-09-12T09:19:45;16.80;;;2.63;;
57535;SDS011;43361;49.790;8.960;2022-09-12T09:29:49;14.43;;;2.20;;
57535;SDS011;43361;49.790;8.960;2022-09-12T09:39:56;7.20;;;2.72;;
57535;SDS011;43361;49.790;8.960;2022-09-12T09:50:00;5.22;;;2.53;;
57535;SDS011;43361;49.790;8.960;2022-09-12T10:00:11;11.95;;;2.65;;
57535;SDS011;43361;49.790;8.960;2022-09-12T10:10:20;6.17;;;2.10;;
57535;SDS011;43361;49.790;8.960;2022-09-12T10:20:31;20.52;;;6.88;;
57535;SDS011;43361;49.790;8.960;2022-09-12T10:30:31;94.68;;;32.30;;
57535;SDS011;43361;49.790;8.960;2022-09-12T10:40:34;56.85;;;20.17;;
57535;SDS011;43361;49.790;8.960;2022-09-12T10:50:38;51.63;;;18.27;;
57535;SDS011;43361;49.790;8.960;2022-09-12T11:00:43;38.60;;;14.35;;
57535;SDS011;43361;49.790;8.960;2022-09-12T11:10:46;30.92;;;10.77;;
57535;SDS011;43361;49.790;8.960;2022-09-12T11:31:16;33.57;;;10.77;;
57535;SDS011;43361;49.790;8.960;2022-09-12T11:41:22;29.45;;;10.50;;
57535;SDS011;43361;49.790;8.960;2022-09-12T11:51:26;31.95;;;9.25;;
57535;SDS011;43361;49.790;8.960;2022-09-12T12:01:29;32.00;;;10.00;;
57535;SDS011;43361;49.790;8.960;2022-09-12T12:11:34;18.48;;;7.65;;
57535;SDS011;43361;49.790;8.960;2022-09-12T12:21:37;19.90;;;7.28;;
57535;SDS011;43361;49.790;8.960;2022-09-12T12:42:08;15.50;;;6.45;;
57535;SDS011;43361;49.790;8.960;2022-09-12T12:52:14;16.13;;;5.55;;
57535;SDS011;43361;49.790;8.960;2022-09-12T13:02:21;13.00;;;5.75;;
57535;SDS011;43361;49.790;8.960;2022-09-12T13:12:24;11.07;;;4.85;;
57535;SDS011;43361;49.790;8.960;2022-09-12T13:22:36;13.82;;;5.10;;
57535;SDS011;43361;49.790;8.960;2022-09-12T13:32:37;7.40;;;4.10;;
57535;SDS011;43361;49.790;8.960;2022-09-12T13:42:39;25.55;;;4.93;;
57535;SDS011;43361;49.790;8.960;2022-09-12T13:52:41;9.25;;;4.32;;
57535;SDS011;43361;49.790;8.960;2022-09-12T14:02:45;13.13;;;4.43;;
57535;SDS011;43361;49.790;8.960;2022-09-12T14:12:46;10.13;;;3.78;;
57535;SDS011;43361;49.790;8.960;2022-09-12T14:22:51;13.95;;;3.90;;
57535;SDS011;43361;49.790;8.960;2022-09-12T14:43:16;14.27;;;3.67;;
57535;SDS011;43361;49.790;8.960;2022-09-12T14:53:22;21.05;;;3.53;;
57535;SDS011;43361;49.790;8.960;2022-09-12T15:03:26;16.15;;;4.20;;
57535;SDS011;43361;49.790;8.960;2022-09-12T15:13:27;14.77;;;3.78;;
57535;SDS011;43361;49.790;8.960;2022-09-12T15:23:36;14.40;;;3.67;;
57535;SDS011;43361;49.790;8.960;2022-09-12T15:33:39;19.83;;;3.88;;
57535;SDS011;43361;49.790;8.960;2022-09-12T15:43:40;16.23;;;3.88;;
57535;SDS011;43361;49.790;8.960;2022-09-12T15:53:41;10.15;;;3.30;;
57535;SDS011;43361;49.790;8.960;2022-09-12T16:03:43;18.83;;;4.07;;
57535;SDS011;43361;49.790;8.960;2022-09-12T16:13:44;17.75;;;4.00;;
57535;SDS011;43361;49.790;8.960;2022-09-12T16:23:46;23.08;;;4.00;;
57535;SDS011;43361;49.790;8.960;2022-09-12T16:33:47;21.67;;;4.28;;
57535;SDS011;43361;49.790;8.960;2022-09-12T16:43:49;15.25;;;3.25;;
57535;SDS011;43361;49.790;8.960;2022-09-12T16:53:50;17.38;;;5.28;;
57535;SDS011;43361;49.790;8.960;2022-09-12T17:03:52;30.88;;;5.70;;
57535;SDS011;43361;49.790;8.960;2022-09-12T17:13:53;13.00;;;4.65;;
57535;SDS011;43361;49.790;8.960;2022-09-12T17:23:56;12.10;;;3.70;;
57535;SDS011;43361;49.790;8.960;2022-09-12T17:33:56;13.10;;;4.18;;
57535;SDS011;43361;49.790;8.960;2022-09-12T17:43:59;13.65;;;3.38;;
57535;SDS011;43361;49.790;8.960;2022-09-12T17:54:01;9.75;;;3.70;;
57535;SDS011;43361;49.790;8.960;2022-09-12T18:04:03;10.05;;;3.80;;
57535;SDS011;43361;49.790;8.960;2022-09-12T18:14:03;11.05;;;3.33;;
57535;SDS011;43361;49.790;8.960;2022-09-12T18:24:05;12.32;;;3.10;;
57535;SDS011;43361;49.790;8.960;2022-09-12T18:34:05;8.80;;;2.85;;
57535;SDS011;43361;49.790;8.960;2022-09-12T18:44:13;9.27;;;3.28;;
57535;SDS011;43361;49.790;8.960;2022-09-12T18:54:13;8.38;;;2.75;;
57535;SDS011;43361;49.790;8.960;2022-09-12T19:04:15;5.25;;;2.67;;
57535;SDS011;43361;49.790;8.960;2022-09-12T19:14:17;8.88;;;2.60;;
57535;SDS011;43361;49.790;8.960;2022-09-12T19:24:19;10.77;;;2.63;;
57535;SDS011;43361;49.790;8.960;2022-09-12T19:34:20;13.07;;;2.90;;
57535;SDS011;43361;49.790;8.960;2022-09-12T19:44:22;6.55;;;2.85;;
57535;SDS011;43361;49.790;8.960;2022-09-12T19:54:26;8.13;;;2.78;;
57535;SDS011;43361;49.790;8.960;2022-09-12T20:04:27;13.75;;;2.75;;
57535;SDS011;43361;49.790;8.960;2022-09-12T20:14:28;6.25;;;2.17;;
57535;SDS011;43361;49.790;8.960;2022-09-12T20:24:30;7.75;;;2.42;;
57535;SDS011;43361;49.790;8.960;2022-09-12T20:34:31;6.95;;;2.22;;
57535;SDS011;43361;49.790;8.960;2022-09-12T20:44:32;6.43;;;2.10;;
57535;SDS011;43361;49.790;8.960;2022-09-12T20:54:33;4.97;;;2.05;;
57535;SDS011;43361;49.790;8.960;2022-09-12T21:04:34;7.35;;;1.90;;
57535;SDS011;43361;49.790;8.960;2022-09-12T21:14:35;6.30;;;2.20;;
57535;SDS011;43361;49.790;8.960;2022-09-12T21:24:37;4.20;;;2.25;;
57535;SDS011;43361;49.790;8.960;2022-09-12T21:34:38;3.78;;;1.90;;
57535;SDS011;43361;49.790;8.960;2022-09-12T21:44:42;7.57;;;2.00;;
57535;SDS011;43361;49.790;8.960;2022-09-12T21:54:42;5.50;;;2.33;;
57535;SDS011;43361;49.790;8.960;2022-09-12T22:04:44;3.45;;;1.77;;
57535;SDS011;43361;49.790;8.960;2022-09-12T22:14:44;3.22;;;1.80;;
57535;SDS011;43361;49.790;8.960;2022-09-12T22:24:47;2.58;;;1.60;;
57535;SDS011;43361;49.790;8.960;2022-09-12T22:34:47;3.60;;;1.73;;
57535;SDS011;43361;49.790;8.960;2022-09-12T22:44:49;4.60;;;1.70;;
57535;SDS011;43361;49.790;8.960;2022-09-12T22:54:50;3.97;;;1.75;;
57535;SDS011;43361;49.790;8.960;2022-09-12T23:04:52;2.40;;;1.55;;
57535;SDS011;43361;49.790;8.960;2022-09-12T23:14:53;1.83;;;1.58;;
57535;SDS011;43361;49.790;8.960;2022-09-12T23:24:55;2.70;;;1.70;;
57535;SDS011;43361;49.790;8.960;2022-09-12T23:34:55;2.78;;;1.63;;
57535;SDS011;43361;49.790;8.960;2022-09-12T23:44:57;2.78;;;1.60;;
57535;SDS011;43361;49.790;8.960;2022-09-12T23:54:57;5.32;;;1.60;;
